Time;durP1;ratioP1;P1;durP2;ratioP2;P2;SDS_P1;SDS_P2;PMS_P1;PMS_P2;Temp;Humidity;BMP_temperature;BMP_pressure;BME280_temperature;BME280_humidity;BME280_pressure;Samples;Min_cycle;Max_cycle;Signal;HPM_P1;HPM_P2
2022/02/15 00:02:01;;;;;;;7.60;4.77;;;;;;;8.77;62.34;99894.34;4998711;28;20480;-70
2022/02/15 00:04:26;;;;;;;11.07;4.90;;;;;;;8.34;63.83;99907.97;4998115;28;20175;-71
2022/02/15 00:06:51;;;;;;;7.33;5.10;;;;;;;8.65;62.89;99905.56;4998186;28;20254;-70
2022/02/15 00:09:17;;;;;;;6.50;4.50;;;;;;;8.58;62.98;99901.22;4998969;28;20557;-70
2022/02/15 00:11:42;;;;;;;9.13;5.10;;;;;;;8.68;62.98;99897.78;4998263;28;20183;-71
2022/02/15 00:14:07;;;;;;;4.93;4.30;;;;;;;8.80;61.98;99907.34;4998117;28;20175;-71
2022/02/15 00:16:33;;;;;;;5.73;4.50;;;;;;;8.86;62.38;99903.91;4998637;28;20533;-70
2022/02/15 00:18:59;;;;;;;7.87;5.30;;;;;;;8.95;61.90;99890.06;4997915;28;20175;-72
2022/02/15 00:21:24;;;;;;;8.33;4.93;;;;;;;8.91;62.09;99892.66;4998049;28;20834;-72
2022/02/15 00:23:50;;;;;;;8.13;4.50;;;;;;;8.90;61.87;99903.94;4998517;28;20160;-73
2022/02/15 00:26:15;;;;;;;8.67;4.90;;;;;;;8.96;61.45;99902.19;4981026;28;20568;-73
2022/02/15 00:28:40;;;;;;;6.37;5.10;;;;;;;8.95;61.57;99901.34;4998230;28;20168;-72
2022/02/15 00:31:05;;;;;;;6.03;4.80;;;;;;;9.07;61.99;99888.34;4998442;28;20168;-72
2022/02/15 00:33:31;;;;;;;12.70;4.70;;;;;;;9.03;61.49;99898.75;4997760;28;20190;-71
2022/02/15 00:35:57;;;;;;;5.30;4.80;;;;;;;9.00;61.53;99899.63;4998681;28;20501;-70
2022/02/15 00:38:22;;;;;;;7.13;5.13;;;;;;;9.07;61.03;99903.09;5002342;28;20540;-70
2022/02/15 00:40:48;;;;;;;5.63;4.90;;;;;;;8.96;62.07;99895.28;5001855;28;20394;-71
2022/02/15 00:43:13;;;;;;;6.00;4.73;;;;;;;9.03;61.67;99907.41;5001503;28;20175;-71
2022/02/15 00:45:39;;;;;;;7.97;5.10;;;;;;;9.57;60.25;99904.88;5002066;28;20218;-71
2022/02/15 00:48:04;;;;;;;8.43;4.80;;;;;;;9.22;60.40;99908.31;5001661;28;20272;-71
2022/02/15 00:50:29;;;;;;;8.33;4.90;;;;;;;9.57;60.43;99904.03;5001374;28;20557;-72
2022/02/15 00:52:55;;;;;;;12.87;4.60;;;;;;;9.22;60.43;99908.31;5001882;28;20167;-72
2022/02/15 00:55:20;;;;;;;6.17;5.00;;;;;;;9.23;61.33;99907.47;5001466;28;20514;-72
2022/02/15 00:57:45;;;;;;;5.83;4.87;;;;;;;9.10;61.63;99906.56;5001402;28;20172;-70
2022/02/15 01:00:12;;;;;;;6.70;5.00;;;;;;;9.15;61.50;99903.97;5001669;28;20520;-72
2022/02/15 01:02:37;;;;;;;9.43;5.27;;;;;;;11.70;69.90;99890.13;5000921;28;20171;-61
2022/02/15 01:05:04;;;;;;;7.70;5.90;;;;;;;13.27;55.25;99886.56;4984026;28;20422;-62
2022/02/15 01:07:29;;;;;;;6.53;4.80;;;;;;;10.41;56.72;99907.41;5001840;28;20202;-71
2022/02/15 01:09:55;;;;;;;6.23;5.30;;;;;;;10.07;58.82;99904.88;5001108;28;20442;-70
2022/02/15 01:12:20;;;;;;;9.40;5.60;;;;;;;9.82;59.35;99906.63;5001077;28;20167;-69
2022/02/15 01:14:45;;;;;;;7.50;5.53;;;;;;;9.55;61.22;99897.94;5001418;28;20203;-70
2022/02/15 01:17:11;;;;;;;10.77;6.77;;;;;;;9.59;59.80;99905.78;5001148;28;20199;-71
2022/02/15 01:19:36;;;;;;;9.37;5.83;;;;;;;8.93;61.00;99909.13;5001060;28;20215;-70
2022/02/15 01:22:02;;;;;;;7.50;6.70;;;;;;;9.33;60.64;99916.13;5002254;28;20477;-71
2022/02/15 01:24:27;;;;;;;9.80;6.10;;;;;;;9.42;60.35;99903.16;5001236;28;20180;-71
2022/02/15 01:26:53;;;;;;;9.83;6.27;;;;;;;9.25;60.44;99907.47;5000930;28;20423;-71
2022/02/15 01:29:18;;;;;;;7.17;6.13;;;;;;;9.63;59.87;99905.75;5001785;28;20509;-70
2022/02/15 01:31:43;;;;;;;7.20;6.30;;;;;;;9.50;59.91;99907.47;5000737;28;20183;-70
2022/02/15 01:34:09;;;;;;;7.67;6.50;;;;;;;9.39;60.56;99908.34;5000315;28;20234;-70
2022/02/15 01:36:34;;;;;;;7.13;6.27;;;;;;;9.46;60.58;99910.94;5001256;28;20266;-71
2022/02/15 01:38:59;;;;;;;9.20;6.97;;;;;;;9.75;59.80;99916.16;5000391;28;20211;-71
2022/02/15 01:41:25;;;;;;;7.40;5.97;;;;;;;9.37;59.79;99899.66;5000680;28;20238;-70
2022/02/15 01:43:51;;;;;;;10.43;7.10;;;;;;;8.97;61.70;99910.00;4984058;28;20250;-71
2022/02/15 01:46:16;;;;;;;7.13;6.43;;;;;;;9.57;61.37;99911.84;5000504;28;20243;-70
2022/02/15 01:48:46;;;;;;;8.77;7.53;;;;;;;9.38;60.53;99919.63;4999618;28;20411;-70
2022/02/15 01:51:12;;;;;;;7.63;6.77;;;;;;;9.57;59.92;99917.03;5000870;28;20168;-69
2022/02/15 01:53:37;;;;;;;8.67;7.77;;;;;;;9.40;60.72;99923.09;5000174;28;20668;-70
2022/02/15 01:56:05;;;;;;;7.40;6.60;;;;;;;9.52;60.50;99919.63;5000450;28;20215;-70
2022/02/15 01:58:31;;;;;;;9.60;7.33;;;;;;;9.46;60.87;99913.53;5000745;28;20175;-71
2022/02/15 02:00:56;;;;;;;9.50;7.83;;;;;;;9.78;59.58;99919.66;5000390;28;20786;-70
2022/02/15 02:03:21;;;;;;;10.37;7.83;;;;;;;9.54;60.21;99917.91;4999992;28;20176;-70
2022/02/15 02:05:50;;;;;;;9.00;7.47;;;;;;;9.39;60.95;99916.16;5000593;28;20179;-70
2022/02/15 02:08:17;;;;;;;8.70;7.70;;;;;;;9.59;60.69;99917.91;4983737;28;20183;-69
2022/02/15 02:10:43;;;;;;;9.37;7.80;;;;;;;9.23;62.58;99927.41;5000143;28;20419;-71
2022/02/15 02:13:08;;;;;;;9.57;7.50;;;;;;;9.27;62.51;99921.34;5000272;28;20550;-70
2022/02/15 02:15:33;;;;;;;8.63;7.73;;;;;;;9.17;63.55;99928.25;4999922;28;20436;-70
2022/02/15 02:17:59;;;;;;;8.87;7.97;;;;;;;9.14;62.84;99935.19;4999717;28;20660;-70
2022/02/15 02:20:24;;;;;;;10.33;7.93;;;;;;;9.10;64.18;99927.34;4983495;28;20234;-71
2022/02/15 02:22:50;;;;;;;9.10;7.83;;;;;;;9.13;64.22;99923.03;4999967;28;20190;-71
2022/02/15 02:25:17;;;;;;;12.93;9.07;;;;;;;8.50;66.80;99941.88;4999797;28;20187;-70
2022/02/15 02:27:43;;;;;;;10.20;9.20;;;;;;;8.67;67.13;99949.75;5000257;28;20188;-71
2022/02/15 02:30:09;;;;;;;10.90;9.00;;;;;;;8.63;67.49;99956.63;4999754;28;20393;-69
2022/02/15 02:32:35;;;;;;;12.13;8.93;;;;;;;8.33;68.87;99947.78;4999422;28;20664;-70
2022/02/15 02:35:01;;;;;;;13.40;9.50;;;;;;;8.83;67.94;99955.88;4999565;28;20473;-70
2022/02/15 02:37:28;;;;;;;16.13;9.27;;;;;;;8.33;68.85;99958.19;4999774;28;20420;-71
2022/02/15 02:39:54;;;;;;;11.03;9.50;;;;;;;8.59;68.83;99966.16;4999900;28;20421;-71
2022/02/15 02:42:21;;;;;;;12.03;10.03;;;;;;;8.90;69.04;99962.81;4999642;28;20419;-70
2022/02/15 02:44:48;;;;;;;12.23;9.77;;;;;;;8.58;69.94;99984.34;4999505;28;20446;-72
2022/02/15 02:47:14;;;;;;;12.80;9.77;;;;;;;8.20;70.18;99974.53;4999916;28;20415;-71
2022/02/15 02:49:39;;;;;;;11.67;10.47;;;;;;;8.11;71.55;99971.91;4999680;28;20419;-71
2022/02/15 02:52:05;;;;;;;13.30;11.20;;;;;;;8.58;70.02;99972.22;4999148;28;20167;-71
2022/02/15 02:54:31;;;;;;;14.63;10.87;;;;;;;8.33;71.56;99965.13;4982370;28;20210;-71
2022/02/15 02:56:57;;;;;;;12.13;10.93;;;;;;;8.38;71.69;99979.84;4982447;28;20502;-70
2022/02/15 02:59:22;;;;;;;14.10;11.10;;;;;;;8.65;71.22;99975.72;4999055;28;20507;-70
2022/02/15 03:01:48;;;;;;;12.30;10.73;;;;;;;8.20;72.09;99984.91;5000024;28;20407;-70
2022/02/15 03:04:15;;;;;;;13.80;11.97;;;;;;;8.33;72.39;99984.16;4999178;28;20465;-70
2022/02/15 03:06:40;;;;;;;12.37;11.07;;;;;;;8.58;72.06;99986.94;4999295;28;20558;-70
2022/02/15 03:09:06;;;;;;;13.57;11.13;;;;;;;8.03;72.88;99996.06;4999770;28;20477;-71
2022/02/15 03:11:32;;;;;;;15.30;11.40;;;;;;;8.14;72.87;99998.72;4999007;28;20182;-70
2022/02/15 03:13:58;;;;;;;14.77;11.30;;;;;;;8.44;73.01;100002.41;4982058;28;20186;-71
2022/02/15 03:16:23;;;;;;;14.23;11.47;;;;;;;8.27;72.55;100002.31;4999436;28;20415;-70
2022/02/15 03:18:49;;;;;;;14.83;12.40;;;;;;;8.63;71.75;100006.00;4999000;28;20521;-69
2022/02/15 03:21:14;;;;;;;12.50;11.17;;;;;;;8.33;72.88;100010.13;4982627;28;20544;-71
2022/02/15 03:23:40;;;;;;;15.00;12.60;;;;;;;8.41;72.14;100018.81;4982374;28;20189;-70
2022/02/15 03:26:06;;;;;;;15.23;12.37;;;;;;;8.16;72.81;100023.00;4998838;28;20258;-70
2022/02/15 03:28:32;;;;;;;13.70;11.17;;;;;;;8.40;72.51;100019.72;4998801;28;20195;-70
2022/02/15 03:30:57;;;;;;;12.23;11.00;;;;;;;8.21;72.58;100018.72;4999144;28;20455;-72
2022/02/15 03:33:22;;;;;;;16.30;11.83;;;;;;;8.35;72.27;100031.78;4998605;28;20191;-70
2022/02/15 03:35:47;;;;;;;14.13;12.00;;;;;;;8.49;71.20;100015.47;4998384;28;20338;-70
2022/02/15 03:38:13;;;;;;;11.63;10.43;;;;;;;8.83;71.19;100020.84;4999145;28;20267;-70
2022/02/15 03:43:22;;;;;;;16.10;11.20;;;;;;;8.43;71.02;100032.72;4998707;28;20237;-70
2022/02/15 03:45:49;;;;;;;11.10;9.67;;;;;;;8.27;71.98;100025.66;4998903;28;20449;-70
2022/02/15 03:48:16;;;;;;;10.37;9.30;;;;;;;8.45;71.37;100034.47;4998682;28;20176;-70
2022/02/15 03:50:42;;;;;;;10.40;9.30;;;;;;;8.07;72.02;100041.09;4999171;28;20735;-70
2022/02/15 03:53:07;;;;;;;10.20;8.30;;;;;;;8.24;72.47;100034.31;4999114;28;20508;-71
2022/02/15 03:55:32;;;;;;;8.60;7.53;;;;;;;8.02;71.68;100033.25;4984285;28;20741;-71
2022/02/15 03:57:57;;;;;;;8.57;7.70;;;;;;;8.18;71.03;100042.03;5002002;28;20241;-70
2022/02/15 04:00:23;;;;;;;8.43;7.63;;;;;;;8.30;70.53;100049.06;5000028;28;20191;-71
2022/02/15 04:02:48;;;;;;;7.90;7.07;;;;;;;8.26;71.54;100045.56;4998970;28;20179;-70
2022/02/15 04:05:14;;;;;;;7.80;7.00;;;;;;;8.31;70.79;100053.41;4999402;28;20168;-71
2022/02/15 04:07:39;;;;;;;7.60;6.80;;;;;;;8.08;71.68;100067.06;4998838;28;20175;-70
2022/02/15 04:10:05;;;;;;;8.23;6.27;;;;;;;8.27;70.35;100060.28;4999045;28;20175;-71
2022/02/15 04:12:30;;;;;;;7.60;6.73;;;;;;;8.52;69.97;100062.25;4986522;28;20179;-73
2022/02/15 04:14:55;;;;;;;7.73;6.97;;;;;;;8.33;70.91;100061.19;5003820;28;20477;-71
2022/02/15 04:17:20;;;;;;;9.23;6.87;;;;;;;8.30;71.44;100066.38;5002670;28;20214;-70
2022/02/15 04:19:46;;;;;;;7.43;6.63;;;;;;;8.11;71.38;100071.41;5002705;28;20180;-72
2022/02/15 04:22:11;;;;;;;6.73;5.70;;;;;;;8.15;72.55;100080.09;5002546;28;20576;-71
2022/02/15 04:24:36;;;;;;;5.97;5.23;;;;;;;8.03;71.46;100079.13;5002026;28;20176;-70
2022/02/15 04:27:02;;;;;;;6.80;5.90;;;;;;;8.07;72.04;100080.03;5002746;28;20593;-70
2022/02/15 04:29:28;;;;;;;6.87;5.50;;;;;;;7.49;74.02;100088.06;5002137;28;20235;-70
2022/02/15 04:31:53;;;;;;;7.40;4.80;;;;;;;7.52;74.90;100085.50;5002300;28;20180;-70
2022/02/15 04:34:18;;;;;;;6.17;4.60;;;;;;;7.92;73.49;100091.13;5001796;28;20462;-70
2022/02/15 04:36:44;;;;;;;5.57;5.07;;;;;;;7.80;73.94;100088.41;5002498;28;20183;-71
2022/02/15 04:39:12;;;;;;;8.50;5.30;;;;;;;8.09;72.43;100083.50;5002153;28;20254;-70
2022/02/15 04:41:37;;;;;;;6.57;5.23;;;;;;;8.05;73.47;100094.69;5001796;28;20218;-71
2022/02/15 04:44:03;;;;;;;7.63;6.27;;;;;;;8.03;72.68;100093.84;5001600;28;20715;-70
2022/02/15 04:46:28;;;;;;;6.60;5.90;;;;;;;7.63;75.04;100099.50;4985252;28;20444;-69
2022/02/15 04:48:53;;;;;;;8.33;6.30;;;;;;;7.70;75.40;100098.69;5001917;28;20472;-74
2022/02/15 04:51:19;;;;;;;8.73;6.63;;;;;;;8.01;74.16;100096.41;5001404;28;20226;-69
2022/02/15 04:53:44;;;;;;;8.57;7.37;;;;;;;8.14;74.16;100101.72;5002083;28;20183;-71
2022/02/15 04:56:09;;;;;;;8.80;5.73;;;;;;;7.90;75.33;100105.81;5001544;28;20210;-70
2022/02/15 04:58:34;;;;;;;8.50;6.00;;;;;;;7.98;74.56;100101.56;5001538;28;20182;-71
2022/02/15 05:01:00;;;;;;;9.40;6.63;;;;;;;7.52;76.07;100107.16;5001937;28;20563;-70
2022/02/15 05:03:25;;;;;;;7.80;6.63;;;;;;;7.50;75.83;100108.84;5001406;28;20306;-71
2022/02/15 05:05:50;;;;;;;9.60;6.50;;;;;;;7.53;76.44;100119.25;5001600;28;20172;-70
2022/02/15 05:08:15;;;;;;;10.80;6.07;;;;;;;7.72;75.81;100111.69;5002204;28;20434;-70
2022/02/15 05:10:41;;;;;;;7.27;6.47;;;;;;;7.63;76.16;100116.75;5001379;28;20176;-72
2022/02/15 05:13:08;;;;;;;7.33;6.50;;;;;;;7.57;75.45;100121.00;4984143;28;20179;-70
2022/02/15 05:15:35;;;;;;;7.57;6.77;;;;;;;7.78;74.98;100118.66;4984439;28;20250;-70
2022/02/15 05:18:02;;;;;;;11.60;6.43;;;;;;;7.90;74.65;100130.06;5001223;28;20422;-71
2022/02/15 05:20:28;;;;;;;7.00;6.20;;;;;;;8.03;74.00;100131.03;5001663;28;20425;-71
2022/02/15 05:22:53;;;;;;;7.03;6.40;;;;;;;7.73;74.85;100137.63;5001194;28;20752;-70
2022/02/15 05:25:18;;;;;;;7.70;6.73;;;;;;;7.71;75.00;100143.66;5000993;28;20187;-70
2022/02/15 05:27:44;;;;;;;7.67;6.70;;;;;;;7.99;75.71;100136.19;5000757;28;20176;-70
2022/02/15 05:30:10;;;;;;;9.57;7.00;;;;;;;8.09;73.94;100141.50;5001376;28;20164;-70
2022/02/15 05:32:35;;;;;;;10.97;7.87;;;;;;;7.72;74.86;100146.28;5000774;28;20179;-70
2022/02/15 05:35:01;;;;;;;10.40;7.17;;;;;;;8.04;74.56;100140.56;5000491;28;20875;-70
2022/02/15 05:37:26;;;;;;;9.87;7.97;;;;;;;7.90;75.02;100168.09;5001238;28;20160;-70
2022/02/15 05:39:52;;;;;;;8.70;7.30;;;;;;;7.65;76.20;100162.63;4983851;28;20211;-71
2022/02/15 05:42:17;;;;;;;9.73;8.27;;;;;;;7.88;75.00;100169.81;5000756;28;20180;-70
2022/02/15 05:44:42;;;;;;;9.50;8.50;;;;;;;7.58;77.00;100166.00;5001025;28;20222;-70
2022/02/15 05:47:08;;;;;;;9.77;8.17;;;;;;;7.80;76.03;100176.66;5000489;28;20172;-72
2022/02/15 05:50:49;;;;;;;9.83;8.53;;;;;;;7.63;76.75;100166.94;5000656;28;20172;-71
2022/02/15 05:52:18;;;;;;;11.93;8.93;;;;;;;7.88;76.52;100167.22;5000391;28;20175;-70
2022/02/15 05:54:44;;;;;;;12.60;8.37;;;;;;;7.96;76.51;100175.09;5000314;28;20633;-72
2022/02/15 05:57:09;;;;;;;10.00;8.17;;;;;;;7.67;76.34;100178.22;5000990;28;20203;-70
2022/02/15 05:59:34;;;;;;;10.50;8.20;;;;;;;7.69;76.90;100174.78;5000638;28;20168;-71
2022/02/15 06:02:00;;;;;;;9.87;8.87;;;;;;;7.74;75.70;100183.50;5000645;28;20417;-70
2022/02/15 06:04:25;;;;;;;11.70;9.57;;;;;;;7.87;76.68;100181.03;5000676;28;20279;-70
2022/02/15 06:06:50;;;;;;;12.03;8.47;;;;;;;7.82;75.52;100185.31;5000339;28;20176;-72
2022/02/15 06:09:16;;;;;;;10.03;7.63;;;;;;;7.73;76.70;100184.34;4999527;28;20190;-70
2022/02/15 06:11:41;;;;;;;9.50;8.50;;;;;;;7.81;76.06;100192.22;4983836;28;20234;-70
2022/02/15 06:14:06;;;;;;;9.30;8.30;;;;;;;7.71;76.92;100196.44;4999209;28;20439;-71
2022/02/15 06:16:31;;;;;;;10.97;9.83;;;;;;;7.48;77.84;100196.16;5000106;28;20180;-71
2022/02/15 06:19:00;;;;;;;12.60;9.33;;;;;;;7.74;76.86;100203.41;5000521;28;20172;-73
2022/02/15 06:21:25;;;;;;;10.43;9.20;;;;;;;7.53;77.92;100204.84;4999982;28;20182;-71
2022/02/15 06:23:51;;;;;;;11.43;8.40;;;;;;;7.85;77.04;100195.75;4999608;28;20418;-71
2022/02/15 06:26:17;;;;;;;10.60;9.10;;;;;;;7.75;76.99;100208.59;5000114;28;20167;-71
2022/02/15 06:28:42;;;;;;;11.60;8.43;;;;;;;7.81;76.00;100205.19;4999736;28;20513;-70
2022/02/15 06:31:07;;;;;;;11.40;9.30;;;;;;;7.56;77.32;100199.72;4999654;28;20258;-71
2022/02/15 06:33:35;;;;;;;10.80;9.10;;;;;;;7.60;76.96;100216.16;4999179;28;20248;-70
2022/02/15 06:36:02;;;;;;;12.00;8.90;;;;;;;7.79;77.01;100213.81;4999569;28;20249;-69
2022/02/15 06:38:27;;;;;;;14.43;9.57;;;;;;;8.05;74.54;100217.59;4999436;28;20665;-71
2022/02/15 06:40:53;;;;;;;11.40;9.50;;;;;;;8.08;74.44;100225.41;4999625;28;20465;-70
2022/02/15 06:43:18;;;;;;;12.37;9.30;;;;;;;7.70;75.25;100220.63;4999489;28;20194;-72
2022/02/15 06:45:43;;;;;;;12.60;8.97;;;;;;;7.82;75.48;100225.13;4999808;28;20167;-70
2022/02/15 06:48:10;;;;;;;18.67;10.17;;;;;;;8.32;73.40;100236.94;4999355;28;20243;-72
2022/02/15 06:50:35;;;;;;;13.47;9.37;;;;;;;8.26;74.47;100235.13;4999254;28;20163;-71
2022/02/15 06:53:00;;;;;;;11.40;8.33;;;;;;;7.91;75.48;100240.81;4999675;28;20426;-71
2022/02/15 06:55:25;;;;;;;11.33;9.20;;;;;;;8.01;74.25;100244.38;4999521;28;20207;-70
2022/02/15 06:57:51;;;;;;;10.50;8.80;;;;;;;8.21;74.23;100247.22;4999204;28;20206;-71
2022/02/15 07:00:16;;;;;;;11.07;9.63;;;;;;;8.09;74.74;100250.53;4999606;28;20163;-70
2022/02/15 07:02:42;;;;;;;20.27;9.60;;;;;;;7.46;76.61;100256.63;4998915;28;20186;-69
2022/02/15 07:05:07;;;;;;;15.87;9.77;;;;;;;8.09;75.55;100266.09;4999162;28;20620;-70
2022/02/15 07:07:33;;;;;;;10.60;8.50;;;;;;;8.20;74.39;100271.44;4999761;28;20580;-70
2022/02/15 07:09:58;;;;;;;11.77;9.43;;;;;;;7.65;75.68;100278.50;4999189;28;20218;-70
2022/02/15 07:12:24;;;;;;;12.03;9.33;;;;;;;7.80;75.90;100288.22;4999017;28;20179;-69
2022/02/15 07:14:49;;;;;;;14.37;10.03;;;;;;;7.60;76.94;100301.78;4999396;28;20464;-70
2022/02/15 07:17:14;;;;;;;13.93;9.97;;;;;;;7.90;76.50;100295.25;4998972;28;20435;-69
2022/02/15 07:19:40;;;;;;;14.50;10.47;;;;;;;7.95;76.32;100296.22;4999495;28;20167;-70
2022/02/15 07:22:05;;;;;;;11.80;10.07;;;;;;;7.95;76.31;100309.19;4999621;28;20173;-72
2022/02/15 07:24:32;;;;;;;12.70;10.10;;;;;;;8.02;75.53;100305.81;4998943;28;20183;-70
2022/02/15 07:26:57;;;;;;;15.10;10.67;;;;;;;8.03;75.38;100311.88;4999076;28;20168;-70
2022/02/15 07:29:23;;;;;;;17.77;12.00;;;;;;;7.93;75.58;100311.75;4998130;28;20414;-69
2022/02/15 07:31:49;;;;;;;11.53;10.13;;;;;;;8.33;74.70;100315.72;4989990;28;20263;-68
2022/02/15 07:34:14;;;;;;;15.83;12.23;;;;;;;8.28;74.35;100318.28;4985729;28;20250;-71
2022/02/15 07:36:40;;;;;;;12.93;9.97;;;;;;;8.21;75.28;100313.84;4999090;28;20200;-71
2022/02/15 07:39:05;;;;;;;14.13;10.80;;;;;;;8.05;75.04;100324.03;4998482;28;20261;-69
2022/02/15 07:41:30;;;;;;;15.40;11.63;;;;;;;8.15;75.29;100327.63;4998855;28;20247;-70
2022/02/15 07:43:56;;;;;;;13.20;10.40;;;;;;;7.94;76.57;100328.19;4999216;28;20177;-71
2022/02/15 07:46:22;;;;;;;14.40;10.77;;;;;;;8.28;75.04;100323.47;5000261;28;20586;-70
2022/02/15 07:48:49;;;;;;;13.03;11.00;;;;;;;8.62;74.82;100333.38;5002540;28;20426;-70
2022/02/15 07:51:14;;;;;;;13.67;11.40;;;;;;;8.07;76.04;100326.66;4986061;28;20529;-68
2022/02/15 07:53:40;;;;;;;12.47;10.57;;;;;;;7.95;76.05;100331.69;5002557;28;20481;-71
2022/02/15 07:56:05;;;;;;;14.13;10.90;;;;;;;8.20;75.39;100341.53;5002549;28;20230;-68
2022/02/15 07:58:30;;;;;;;13.13;11.43;;;;;;;7.84;77.02;100344.50;5002737;28;20176;-70
2022/02/15 08:00:56;;;;;;;15.70;11.60;;;;;;;7.82;78.75;100336.72;5002231;28;20226;-71
2022/02/15 08:03:22;;;;;;;14.33;11.10;;;;;;;7.75;78.53;100335.75;5002164;28;20172;-72
2022/02/15 08:05:47;;;;;;;13.10;10.53;;;;;;;8.21;76.94;100342.41;5002688;28;20203;-71
2022/02/15 08:08:13;;;;;;;19.53;12.00;;;;;;;8.19;76.67;100341.53;5002502;28;20435;-72
2022/02/15 08:10:39;;;;;;;15.47;11.37;;;;;;;8.25;76.19;100345.06;5002348;28;20171;-71
2022/02/15 08:13:07;;;;;;;16.07;11.97;;;;;;;8.26;75.77;100345.94;5002405;28;20389;-73
2022/02/15 08:15:34;;;;;;;15.90;11.40;;;;;;;8.28;75.39;100349.44;5002012;28;20203;-72
2022/02/15 08:18:01;;;;;;;14.67;11.03;;;;;;;8.29;75.54;100358.09;5002101;28;20664;-69
2022/02/15 08:20:27;;;;;;;11.80;10.43;;;;;;;8.12;75.66;100361.34;5002521;28;20419;-69
2022/02/15 08:22:52;;;;;;;12.63;9.27;;;;;;;8.31;75.06;100361.56;5001963;28;20430;-69
2022/02/15 08:25:19;;;;;;;15.33;10.23;;;;;;;7.96;76.31;100362.84;5002131;28;20199;-68
2022/02/15 08:27:44;;;;;;;11.97;9.50;;;;;;;7.71;76.82;100370.28;5002737;28;20168;-73
2022/02/15 08:30:11;;;;;;;15.80;9.33;;;;;;;7.78;75.57;100371.25;5001922;28;20418;-75
2022/02/15 08:32:36;;;;;;;13.00;9.80;;;;;;;8.00;76.10;100369.81;4984832;28;20260;-74
2022/02/15 08:35:02;;;;;;;14.20;10.13;;;;;;;8.19;75.55;100370.09;5001426;28;20478;-73
2022/02/15 08:37:27;;;;;;;14.33;10.10;;;;;;;7.82;76.06;100385.13;5001733;28;20206;-72
2022/02/15 08:39:52;;;;;;;12.67;9.40;;;;;;;8.05;75.44;100378.56;5002004;28;20183;-73
2022/02/15 08:42:17;;;;;;;11.50;10.20;;;;;;;7.88;76.22;100382.63;5001837;28;20445;-73
2022/02/15 08:44:44;;;;;;;13.43;9.67;;;;;;;7.69;75.84;100389.25;5001510;28;20254;-72
2022/02/15 08:47:09;;;;;;;13.13;10.40;;;;;;;7.71;76.72;100391.03;4985261;28;20175;-71
2022/02/15 08:49:36;;;;;;;16.23;11.50;;;;;;;8.06;75.60;100395.00;5001657;28;20389;-71
2022/02/15 08:52:01;;;;;;;13.97;11.07;;;;;;;8.45;74.07;100391.22;4993884;28;20184;-72
2022/02/15 08:54:27;;;;;;;15.50;11.63;;;;;;;8.29;73.45;100399.66;4998871;28;20441;-71
2022/02/15 08:56:52;;;;;;;13.07;10.53;;;;;;;8.42;73.40;100397.22;5000882;28;20782;-73
2022/02/15 08:59:18;;;;;;;13.03;10.97;;;;;;;8.26;73.91;100403.06;5001356;28;20215;-74
2022/02/15 09:01:43;;;;;;;13.63;11.40;;;;;;;8.55;72.56;100403.50;5001536;28;20168;-72
2022/02/15 09:04:09;;;;;;;16.40;11.60;;;;;;;8.43;72.01;100398.97;5000924;28;20258;-72
2022/02/15 09:06:36;;;;;;;13.73;10.40;;;;;;;8.37;72.54;100398.03;5001172;28;20199;-71
2022/02/15 09:09:02;;;;;;;14.20;11.10;;;;;;;8.36;72.63;100402.34;5001256;28;20264;-70
2022/02/15 09:11:28;;;;;;;16.57;10.60;;;;;;;8.87;71.24;100405.56;5001033;28;20693;-70
2022/02/15 09:13:53;;;;;;;13.30;10.63;;;;;;;8.77;71.61;100402.00;5000877;28;20489;-70
2022/02/15 09:16:18;;;;;;;13.17;10.20;;;;;;;8.46;71.81;100412.88;5001135;28;20199;-70
2022/02/15 09:18:44;;;;;;;11.77;10.27;;;;;;;8.47;72.13;100409.41;5000703;28;20298;-71
2022/02/15 09:21:10;;;;;;;18.20;10.20;;;;;;;9.04;70.37;100410.97;5001103;28;20191;-73
2022/02/15 09:23:35;;;;;;;13.00;9.00;;;;;;;8.80;70.24;100402.91;5000982;28;20176;-72
2022/02/15 09:26:02;;;;;;;13.37;10.20;;;;;;;9.02;70.15;100410.06;5000629;28;20427;-72
2022/02/15 09:28:27;;;;;;;11.27;10.00;;;;;;;9.09;69.62;100409.28;5000522;28;20475;-74
2022/02/15 09:30:55;;;;;;;12.27;9.00;;;;;;;9.10;69.08;100410.16;5000766;28;20498;-72
2022/02/15 09:33:21;;;;;;;10.30;8.60;;;;;;;9.21;67.84;100412.88;5000211;28;20541;-72
2022/02/15 09:35:47;;;;;;;10.53;7.93;;;;;;;8.76;69.28;100400.25;5000163;28;20536;-73
2022/02/15 09:38:12;;;;;;;10.57;8.47;;;;;;;8.98;68.20;100405.69;5000287;28;20782;-73
2022/02/15 09:40:38;;;;;;;10.60;8.10;;;;;;;9.51;66.85;100406.19;5000254;28;20190;-70
2022/02/15 09:43:05;;;;;;;10.67;7.80;;;;;;;8.81;67.81;100412.44;5000349;28;20194;-73
2022/02/15 09:45:31;;;;;;;11.30;7.20;;;;;;;10.68;65.07;100420.00;5000506;28;20254;-61
2022/02/15 09:47:57;;;;;;;9.40;7.10;;;;;;;9.60;64.77;100424.50;4983100;28;20502;-72
2022/02/15 09:50:22;;;;;;;17.60;7.20;;;;;;;9.44;65.34;100411.38;4983123;28;20458;-72
2022/02/15 09:52:48;;;;;;;8.17;6.93;;;;;;;9.74;64.04;100404.69;4983566;28;20258;-70
2022/02/15 09:55:13;;;;;;;9.70;7.70;;;;;;;9.32;65.51;100405.16;4999808;28;20207;-72
2022/02/15 09:57:38;;;;;;;8.70;6.93;;;;;;;9.34;65.48;100424.28;5000138;28;20407;-73
2022/02/15 10:00:05;;;;;;;7.60;6.13;;;;;;;9.20;65.52;100417.22;4999790;28;20534;-73
2022/02/15 10:02:35;;;;;;;11.40;7.17;;;;;;;9.54;64.43;100422.72;4999709;28;20229;-72
2022/02/15 10:05:00;;;;;;;7.07;6.37;;;;;;;8.94;65.50;100424.72;4999894;28;20813;-73
2022/02/15 10:07:26;;;;;;;13.57;6.53;;;;;;;9.02;65.22;100428.28;5000261;28;20415;-72
2022/02/15 10:09:54;;;;;;;6.10;5.50;;;;;;;9.14;65.12;100437.94;4982315;28;20401;-71
2022/02/15 10:12:20;;;;;;;7.80;6.10;;;;;;;9.40;63.60;100438.22;4999684;28;20176;-72
2022/02/15 10:14:47;;;;;;;10.70;6.20;;;;;;;9.36;63.18;100433.84;5000176;28;20425;-73
2022/02/15 10:17:16;;;;;;;9.97;6.20;;;;;;;9.63;62.79;100436.66;4999646;28;20393;-72
2022/02/15 10:19:43;;;;;;;8.20;6.43;;;;;;;9.61;63.37;100429.72;4999728;28;20454;-74
2022/02/15 10:22:09;;;;;;;7.23;5.87;;;;;;;9.66;62.38;100428.88;5000289;28;20382;-75
2022/02/15 10:24:36;;;;;;;9.20;6.90;;;;;;;10.41;61.98;100434.63;4999596;28;20784;-72
2022/02/15 10:27:04;;;;;;;9.50;6.77;;;;;;;11.53;57.37;100422.81;4999420;28;20279;-75
2022/02/15 10:29:32;;;;;;;7.37;6.57;;;;;;;12.39;55.16;100424.47;4999805;28;20390;-74
2022/02/15 10:31:59;;;;;;;7.77;6.60;;;;;;;12.10;55.70;100422.78;4999463;28;20448;-75
2022/02/15 10:34:25;;;;;;;8.33;7.63;;;;;;;11.30;56.78;100428.00;4973833;28;20533;-74
2022/02/15 10:37:00;;;;;;;8.10;7.30;;;;;;;11.58;56.66;100428.00;4980361;28;20424;-74
2022/02/15 10:39:40;;;;;;;9.10;7.20;;;;;;;11.51;56.25;100440.19;4979967;28;20452;-76
2022/02/15 10:42:08;;;;;;;8.10;7.20;;;;;;;11.46;56.25;100434.13;4979811;28;20438;-75
2022/02/15 10:44:52;;;;;;;8.47;7.43;;;;;;;10.66;57.10;100445.19;4979495;28;20416;-74
2022/02/15 10:47:18;;;;;;;9.93;7.33;;;;;;;10.17;58.64;100445.75;4963119;28;20427;-76
2022/02/15 10:49:43;;;;;;;8.00;7.10;;;;;;;9.72;59.80;100445.44;4962911;28;20783;-78
2022/02/15 10:52:10;;;;;;;9.83;8.20;;;;;;;10.29;59.33;100445.81;4979800;28;20448;-77
2022/02/15 10:54:36;;;;;;;9.67;8.67;;;;;;;9.92;60.54;100447.34;4979725;28;20196;-75
2022/02/15 10:57:03;;;;;;;10.57;8.70;;;;;;;9.91;60.68;100440.38;4979481;28;20418;-75
2022/02/15 10:59:32;;;;;;;9.83;8.80;;;;;;;9.74;60.70;100445.44;4962566;28;20428;-75
2022/02/15 11:01:59;;;;;;;10.50;9.40;;;;;;;9.70;61.69;100449.75;4979757;28;20183;-76
2022/02/15 11:04:25;;;;;;;11.40;9.30;;;;;;;10.02;61.11;100454.34;4962692;28;20453;-76
2022/02/15 11:06:50;;;;;;;12.53;9.37;;;;;;;9.55;61.92;100455.72;4962731;28;20402;-75
2022/02/15 11:09:19;;;;;;;12.77;9.07;;;;;;;9.55;62.72;100455.72;4962940;28;20176;-76
2022/02/15 11:11:56;;;;;;;12.40;10.60;;;;;;;10.42;60.22;100454.63;4962742;28;20455;-76
2022/02/15 11:14:21;;;;;;;11.87;9.37;;;;;;;10.36;60.35;100454.59;4962591;28;20532;-75
2022/02/15 11:16:50;;;;;;;10.17;9.13;;;;;;;9.58;61.69;100458.31;4962476;28;20510;-72
2022/02/15 11:19:16;;;;;;;11.90;9.90;;;;;;;9.82;61.92;100459.38;4979099;28;20176;-72
2022/02/15 11:21:52;;;;;;;14.03;10.50;;;;;;;9.54;62.59;100456.56;4979590;28;20759;-73
2022/02/15 11:24:17;;;;;;;10.70;9.60;;;;;;;10.05;60.98;100450.88;4979146;28;20184;-73
2022/02/15 11:26:43;;;;;;;17.53;10.63;;;;;;;10.02;61.41;100449.13;4978799;28;20784;-73